createdAt,value
2023-05-10T00:01:33.824Z,100667.63
2023-05-10T00:04:36.267Z,100668.69
2023-05-10T00:07:41.832Z,100651.19
2023-05-10T00:10:44.166Z,100658.75
2023-05-10T00:13:46.638Z,100636.91
2023-05-10T00:16:49.209Z,100654.50
2023-05-10T00:19:52.780Z,100647.94
2023-05-10T00:22:55.029Z,100652.47
2023-05-10T00:25:57.416Z,100649.69
2023-05-10T00:28:59.768Z,100659.47
2023-05-10T00:32:02.120Z,100658.72
2023-05-10T00:35:04.810Z,100643.72
2023-05-10T00:38:07.897Z,100653.13
2023-05-10T00:41:10.162Z,100653.88
2023-05-10T00:44:14.757Z,100648.13
2023-05-10T00:47:18.048Z,100636.56
2023-05-10T00:50:20.454Z,100646.03
2023-05-10T00:53:23.017Z,100648.34
2023-05-10T00:56:26.604Z,100649.22
2023-05-10T00:59:29.830Z,100650.13
2023-05-10T01:02:32.172Z,100645.44
2023-05-10T01:05:34.455Z,100648.41
2023-05-10T01:08:37.577Z,100638.72
2023-05-10T01:11:41.174Z,100645.59
2023-05-10T01:14:44.151Z,100641.81
2023-05-10T01:17:48.492Z,100644.81
2023-05-10T01:21:05.746Z,100635.84
2023-05-10T01:24:23.210Z,100648.47
2023-05-10T01:28:02.747Z,100642.31
2023-05-10T01:31:19.463Z,100632.66
2023-05-10T01:34:26.667Z,100631.53
2023-05-10T01:37:38.536Z,100636.63
2023-05-10T01:41:10.086Z,100639.75
2023-05-10T01:44:15.393Z,100642.25
2023-05-10T01:47:36.045Z,100639.00
2023-05-10T01:50:44.842Z,100626.47
2023-05-10T01:53:49.829Z,100633.03
2023-05-10T01:57:06.645Z,100632.81
2023-05-10T02:00:10.581Z,100632.22
2023-05-10T02:03:21.686Z,100629.25
2023-05-10T02:06:26.234Z,100629.53
2023-05-10T02:09:31.830Z,100622.09
2023-05-10T02:12:39.150Z,100620.25
2023-05-10T02:15:42.686Z,100626.44
2023-05-10T02:18:45.839Z,100613.00
2023-05-10T02:21:48.941Z,100612.00
2023-05-10T02:24:52.083Z,100610.31
2023-05-10T02:27:57.879Z,100605.88
2023-05-10T02:31:00.844Z,100606.88
2023-05-10T02:34:05.158Z,100615.78
2023-05-10T02:37:08.146Z,100616.34
2023-05-10T02:40:12.614Z,100608.56
2023-05-10T02:43:19.553Z,100622.03
2023-05-10T02:46:22.037Z,100620.16
2023-05-10T02:49:24.396Z,100617.34
2023-05-10T02:52:37.557Z,100616.94
2023-05-10T02:55:43.134Z,100623.25
2023-05-10T02:58:45.407Z,100609.53
2023-05-10T03:01:47.976Z,100622.03
2023-05-10T03:04:50.665Z,100614.66
2023-05-10T03:07:53.676Z,100614.81
2023-05-10T03:11:28.030Z,100623.66
2023-05-10T03:14:42.512Z,100617.69
2023-05-10T03:17:44.727Z,100617.72
2023-05-10T03:20:56.595Z,100618.63
2023-05-10T03:24:06.446Z,100607.47
2023-05-10T03:27:09.668Z,100610.66
2023-05-10T03:30:13.715Z,100617.44
2023-05-10T03:33:16.289Z,100614.09
2023-05-10T03:36:21.563Z,100610.47
2023-05-10T03:39:24.146Z,100615.25
2023-05-10T03:42:30.550Z,100612.00
2023-05-10T03:45:32.942Z,100609.19
2023-05-10T03:48:35.947Z,100609.91
2023-05-10T03:51:38.257Z,100614.81
2023-05-10T03:54:40.594Z,100613.06
2023-05-10T03:57:43.456Z,100623.44
2023-05-10T04:00:46.509Z,100618.16
2023-05-10T04:03:50.318Z,100613.75
2023-05-10T04:06:52.685Z,100616.94
2023-05-10T04:09:55.455Z,100611.31
2023-05-10T04:12:58.578Z,100610.78
2023-05-10T04:16:01.207Z,100607.59
2023-05-10T04:19:03.812Z,100609.19
2023-05-10T04:22:06.279Z,100613.94
2023-05-10T04:25:09.182Z,100617.41
2023-05-10T04:28:11.391Z,100610.56
2023-05-10T04:31:13.873Z,100609.13
2023-05-10T04:34:16.171Z,100621.97
2023-05-10T04:37:19.186Z,100629.88
2023-05-10T04:40:21.772Z,100627.59
2023-05-10T04:43:24.048Z,100622.69
2023-05-10T04:46:26.356Z,100626.41
2023-05-10T04:49:29.109Z,100619.06
2023-05-10T04:52:31.634Z,100625.03
2023-05-10T04:55:33.945Z,100622.41
2023-05-10T04:58:36.296Z,100630.47
2023-05-10T05:01:38.649Z,100629.44
2023-05-10T05:04:40.942Z,100610.00
2023-05-10T05:07:43.264Z,100630.09
2023-05-10T05:10:45.586Z,100629.84
2023-05-10T05:13:48.083Z,100628.06
2023-05-10T05:16:50.403Z,100635.84
2023-05-10T05:19:52.739Z,100631.81
2023-05-10T05:22:54.994Z,100633.59
2023-05-10T05:25:57.400Z,100635.34
2023-05-10T05:28:59.727Z,100646.16
2023-05-10T05:32:02.452Z,100635.69
2023-05-10T05:35:05.609Z,100640.09
2023-05-10T05:38:07.933Z,100646.66
2023-05-10T05:41:10.297Z,100643.09
2023-05-10T05:44:12.618Z,100647.53
2023-05-10T05:47:15.066Z,100656.25
2023-05-10T05:50:17.427Z,100651.72
2023-05-10T05:53:19.696Z,100648.94
2023-05-10T05:56:25.414Z,100651.81
2023-05-10T05:59:28.219Z,100667.91
2023-05-10T06:02:30.702Z,100662.19
2023-05-10T06:05:33.394Z,100649.47
2023-05-10T06:08:35.746Z,100667.81
2023-05-10T06:11:38.311Z,100659.28
2023-05-10T06:14:40.583Z,100661.97
2023-05-10T06:17:44.421Z,100657.28
2023-05-10T06:20:46.707Z,100661.03
2023-05-10T06:23:49.357Z,100668.25
2023-05-10T06:26:52.183Z,100666.19
2023-05-10T06:30:02.121Z,100665.91
2023-05-10T06:33:12.091Z,100670.22
2023-05-10T06:36:14.472Z,100663.59
2023-05-10T06:39:17.102Z,100681.72
2023-05-10T06:42:19.383Z,100663.44
2023-05-10T06:45:22.956Z,100671.88
2023-05-10T06:48:25.195Z,100665.66
2023-05-10T06:51:27.714Z,100645.63
2023-05-10T06:54:30.063Z,100670.22
2023-05-10T06:57:33.297Z,100676.00
2023-05-10T07:00:35.772Z,100670.25
2023-05-10T07:03:38.102Z,100678.41
2023-05-10T07:06:40.586Z,100674.47
2023-05-10T07:09:45.353Z,100646.63
2023-05-10T07:12:47.937Z,100672.16
2023-05-10T07:15:53.218Z,100646.91
2023-05-10T07:18:55.636Z,100660.72
2023-05-10T07:21:58.080Z,100668.84
2023-05-10T07:25:00.936Z,100665.78
2023-05-10T07:28:03.219Z,100658.97
2023-05-10T07:31:05.546Z,100654.38
2023-05-10T07:34:07.904Z,100654.22
2023-05-10T07:37:10.264Z,100663.25
2023-05-10T07:40:12.693Z,100665.41
2023-05-10T07:43:17.963Z,100651.78
2023-05-10T07:46:20.809Z,100658.81
2023-05-10T07:49:25.237Z,100628.47
2023-05-10T07:52:27.514Z,100648.47
2023-05-10T07:55:29.795Z,100654.53
2023-05-10T07:58:32.666Z,100652.09
2023-05-10T08:01:35.970Z,100653.72
2023-05-10T08:04:38.400Z,100646.06
2023-05-10T08:07:41.384Z,100656.53
2023-05-10T08:10:43.871Z,100643.88
2023-05-10T08:13:46.761Z,100657.13
2023-05-10T08:16:49.101Z,100655.06
2023-05-10T08:19:51.419Z,100640.63
2023-05-10T08:22:59.245Z,100647.06
2023-05-10T08:26:01.726Z,100658.69
2023-05-10T08:29:04.097Z,100645.22
2023-05-10T08:32:06.464Z,100645.19
2023-05-10T08:35:08.799Z,100649.09
2023-05-10T08:38:11.237Z,100638.63
2023-05-10T08:41:14.524Z,100660.69
2023-05-10T08:44:17.726Z,100640.59
2023-05-10T08:47:23.256Z,100630.00
2023-05-10T08:50:26.589Z,100650.28
2023-05-10T08:53:36.456Z,100652.44
2023-05-10T08:56:38.794Z,100641.97
2023-05-10T08:59:41.177Z,100642.84
2023-05-10T09:02:45.298Z,100640.75
2023-05-10T09:05:48.038Z,100648.84
2023-05-10T09:08:51.241Z,100638.03
2023-05-10T09:11:54.896Z,100656.22
2023-05-10T09:15:02.944Z,100646.72
2023-05-10T09:18:06.176Z,100642.56
2023-05-10T09:21:09.453Z,100633.16
2023-05-10T09:24:13.033Z,100656.16
2023-05-10T09:27:15.401Z,100650.59
2023-05-10T09:30:29.178Z,100645.09
2023-05-10T09:33:45.627Z,100636.91
2023-05-10T09:36:55.832Z,100637.75
2023-05-10T09:39:58.122Z,100639.97
2023-05-10T09:43:11.893Z,100638.69
2023-05-10T09:46:14.907Z,100618.31
2023-05-10T09:49:17.341Z,100625.78
2023-05-10T09:52:19.679Z,100622.13
2023-05-10T09:55:24.647Z,100621.81
2023-05-10T09:58:27.256Z,100631.28
2023-05-10T10:01:30.637Z,100628.63
2023-05-10T10:04:33.862Z,100612.91
2023-05-10T10:07:36.912Z,100620.03
2023-05-10T10:10:42.568Z,100612.53
2023-05-10T10:13:45.216Z,100606.38
2023-05-10T10:16:59.859Z,100607.38
2023-05-10T10:20:12.318Z,100607.59
2023-05-10T10:23:17.365Z,100591.38
2023-05-10T10:26:20.965Z,100592.06
2023-05-10T10:29:37.935Z,100585.75
2023-05-10T10:33:20.212Z,100606.25
2023-05-10T10:36:29.612Z,100597.59
2023-05-10T10:39:32.299Z,100592.91
2023-05-10T10:42:52.657Z,100587.94
2023-05-10T10:46:18.437Z,100584.50
2023-05-10T10:49:22.328Z,100576.78
2023-05-10T10:52:34.058Z,100570.56
2023-05-10T10:55:49.464Z,100568.53
2023-05-10T10:58:53.573Z,100559.00
2023-05-10T11:01:55.810Z,100574.75
2023-05-10T11:04:58.068Z,100563.00
2023-05-10T11:08:01.792Z,100555.69
2023-05-10T11:11:09.203Z,100552.38
2023-05-10T11:14:11.521Z,100543.28
2023-05-10T11:17:28.124Z,100547.56
2023-05-10T11:20:40.129Z,100543.59
2023-05-10T11:23:59.137Z,100539.69
2023-05-10T11:27:01.996Z,100545.34
2023-05-10T11:30:07.650Z,100527.97
2023-05-10T11:33:10.988Z,100532.53
2023-05-10T11:36:27.572Z,100547.56
2023-05-10T11:39:31.593Z,100532.19
2023-05-10T11:42:34.632Z,100523.47
2023-05-10T11:45:37.005Z,100524.81
2023-05-10T11:48:43.960Z,100524.97
2023-05-10T11:51:46.893Z,100528.38
2023-05-10T11:54:54.462Z,100520.84
2023-05-10T11:58:02.225Z,100521.59
2023-05-10T12:01:06.714Z,100518.72
2023-05-10T12:04:09.240Z,100521.81
2023-05-10T12:07:11.741Z,100515.97
2023-05-10T12:10:20.758Z,100516.50
2023-05-10T12:13:26.269Z,100530.75
2023-05-10T12:16:30.388Z,100510.94
2023-05-10T12:19:40.233Z,100518.09
2023-05-10T12:22:50.477Z,100513.97
2023-05-10T12:25:55.005Z,100516.94
2023-05-10T12:29:18.124Z,100523.81
2023-05-10T12:32:20.531Z,100515.00
2023-05-10T12:35:24.997Z,100515.75
2023-05-10T12:38:34.176Z,100471.34
2023-05-10T12:41:36.846Z,100507.75
2023-05-10T12:44:47.503Z,100499.38
2023-05-10T12:47:49.935Z,100501.41
2023-05-10T12:50:52.253Z,100492.13
2023-05-10T12:57:42.262Z,100502.59
2023-05-10T13:00:44.952Z,100470.66
2023-05-10T13:03:47.568Z,100480.03
2023-05-10T13:06:49.919Z,100475.50
2023-05-10T13:09:52.221Z,100474.47
2023-05-10T13:12:54.458Z,100463.84
2023-05-10T13:15:56.734Z,100464.53
2023-05-10T13:18:59.668Z,100466.81
2023-05-10T13:22:02.247Z,100476.31
2023-05-10T13:25:04.904Z,100458.09
2023-05-10T13:28:07.317Z,100456.97
2023-05-10T13:31:09.906Z,100453.88
2023-05-10T13:34:12.599Z,100453.75
2023-05-10T13:37:15.317Z,100442.72
2023-05-10T13:40:17.922Z,100407.16
2023-05-10T13:43:33.089Z,100423.72
2023-05-10T13:46:39.887Z,100400.75
2023-05-10T13:49:42.368Z,100419.75
2023-05-10T13:52:45.086Z,100424.19
2023-05-10T13:55:48.286Z,100435.81
2023-05-10T13:58:50.525Z,100430.25
2023-05-10T14:01:53.210Z,100410.94
2023-05-10T14:04:55.579Z,100421.03
2023-05-10T14:07:58.202Z,100418.53
2023-05-10T14:11:00.626Z,100421.25
2023-05-10T14:14:03.589Z,100413.97
2023-05-10T14:17:06.472Z,100409.97
2023-05-10T14:20:09.587Z,100393.81
2023-05-10T14:23:12.389Z,100387.91
2023-05-10T14:26:15.705Z,100398.69
2023-05-10T14:29:18.560Z,100399.72
2023-05-10T14:32:21.051Z,100395.59
2023-05-10T14:35:23.522Z,100401.63
2023-05-10T14:38:26.012Z,100403.59
2023-05-10T14:41:28.783Z,100405.97
2023-05-10T14:44:31.692Z,100379.00
2023-05-10T14:47:34.511Z,100388.63
2023-05-10T14:50:37.526Z,100402.13
2023-05-10T14:53:40.048Z,100400.13
2023-05-10T14:56:42.844Z,100401.47
2023-05-10T14:59:45.179Z,100410.53
2023-05-10T15:02:49.725Z,100400.91
2023-05-10T15:05:54.234Z,100394.47
2023-05-10T15:08:56.701Z,100390.69
2023-05-10T15:11:59.060Z,100391.88
2023-05-10T15:15:01.355Z,100408.09
2023-05-10T15:18:03.740Z,100383.66
2023-05-10T15:21:06.056Z,100387.31
2023-05-10T15:24:08.992Z,100385.44
2023-05-10T15:27:11.221Z,100399.16
2023-05-10T15:30:13.720Z,100390.38
2023-05-10T15:33:16.096Z,100398.00
2023-05-10T15:36:19.063Z,100388.88
2023-05-10T15:39:21.342Z,100395.78
2023-05-10T15:42:23.716Z,100396.50
2023-05-10T15:45:26.102Z,100387.75
2023-05-10T15:48:28.460Z,100387.72
2023-05-10T15:51:30.827Z,100380.38
2023-05-10T15:54:33.104Z,100381.88
2023-05-10T15:57:36.747Z,100379.06
2023-05-10T16:00:39.221Z,100379.34
2023-05-10T16:03:41.775Z,100378.13
2023-05-10T16:06:44.260Z,100380.78
2023-05-10T16:09:46.692Z,100382.47
2023-05-10T16:12:49.090Z,100386.38
2023-05-10T16:15:51.425Z,100387.31
2023-05-10T16:18:54.019Z,100381.72
2023-05-10T16:21:56.519Z,100386.72
2023-05-10T16:24:59.231Z,100386.03
2023-05-10T16:28:01.766Z,100386.88
2023-05-10T16:31:04.098Z,100388.03
2023-05-10T16:34:06.330Z,100391.56
2023-05-10T16:37:08.594Z,100393.34
2023-05-10T16:40:11.317Z,100400.22
2023-05-10T16:43:13.586Z,100392.94
2023-05-10T16:46:16.309Z,100390.91
2023-05-10T16:49:18.581Z,100400.53
2023-05-10T16:52:20.998Z,100400.72
2023-05-10T16:55:25.523Z,100404.81
2023-05-10T16:58:28.664Z,100407.00
2023-05-10T17:01:30.877Z,100416.91
2023-05-10T17:04:33.144Z,100415.88
2023-05-10T17:07:35.405Z,100416.06
2023-05-10T17:10:41.002Z,100416.88
2023-05-10T17:13:43.286Z,100413.75
2023-05-10T17:16:45.677Z,100419.56
2023-05-10T17:19:47.981Z,100412.41
2023-05-10T17:22:50.440Z,100433.28
2023-05-10T17:25:53.727Z,100432.16
2023-05-10T17:28:56.135Z,100427.81
2023-05-10T17:31:59.167Z,100436.94
2023-05-10T17:35:03.787Z,100437.44
2023-05-10T17:38:06.222Z,100437.47
2023-05-10T17:41:08.495Z,100437.34
2023-05-10T17:44:10.748Z,100441.28
2023-05-10T17:47:13.049Z,100433.19
2023-05-10T17:50:15.773Z,100436.16
2023-05-10T17:53:18.400Z,100446.66
2023-05-10T17:56:22.359Z,100447.63
2023-05-10T17:59:24.688Z,100442.41
2023-05-10T18:02:27.225Z,100443.22
2023-05-10T18:05:29.862Z,100440.72
2023-05-10T18:08:33.221Z,100450.75
2023-05-10T18:11:36.303Z,100457.63
2023-05-10T18:14:41.673Z,100442.59
2023-05-10T18:17:44.253Z,100456.19
2023-05-10T18:20:46.911Z,100453.06
2023-05-10T18:23:49.181Z,100460.56
2023-05-10T18:26:51.562Z,100468.69
2023-05-10T18:29:54.012Z,100466.34
2023-05-10T18:32:57.552Z,100461.16
2023-05-10T18:36:00.925Z,100470.53
2023-05-10T18:39:03.425Z,100471.91
2023-05-10T18:42:06.189Z,100478.50
2023-05-10T18:45:08.971Z,100477.22
2023-05-10T18:48:11.401Z,100479.41
2023-05-10T18:51:14.884Z,100474.63
2023-05-10T18:54:17.358Z,100479.63
2023-05-10T18:57:21.225Z,100484.66
2023-05-10T19:00:24.057Z,100489.81
2023-05-10T19:03:26.934Z,100479.84
2023-05-10T19:06:29.311Z,100494.38
2023-05-10T19:09:32.278Z,100494.72
2023-05-10T19:12:34.985Z,100486.66
2023-05-10T19:15:37.416Z,100479.31
2023-05-10T19:18:40.134Z,100498.88
2023-05-10T19:21:42.511Z,100493.88
2023-05-10T19:24:46.321Z,100501.84
2023-05-10T19:27:48.968Z,100500.25
2023-05-10T19:30:51.293Z,100503.31
2023-05-10T19:33:54.004Z,100498.44
2023-05-10T19:36:58.854Z,100502.16
2023-05-10T19:40:01.335Z,100492.78
2023-05-10T19:43:04.273Z,100506.97
2023-05-10T19:46:06.810Z,100498.88
2023-05-10T19:49:09.196Z,100495.56
2023-05-10T19:52:12.370Z,100505.16
2023-05-10T19:55:25.187Z,100489.66
2023-05-10T19:58:28.934Z,100490.06
2023-05-10T20:01:32.968Z,100495.38
2023-05-10T20:04:35.471Z,100489.00
2023-05-10T20:07:37.681Z,100496.50
2023-05-10T20:10:40.068Z,100497.44
2023-05-10T20:13:42.371Z,100493.63
2023-05-10T20:16:44.763Z,100496.06
2023-05-10T20:19:47.272Z,100502.16
2023-05-10T20:22:50.175Z,100507.00
2023-05-10T20:25:54.987Z,100502.88
2023-05-10T20:28:57.542Z,100495.34
2023-05-10T20:32:00.020Z,100503.44
2023-05-10T20:35:02.818Z,100502.16
2023-05-10T20:38:05.844Z,100505.69
2023-05-10T20:41:08.197Z,100502.13
2023-05-10T20:44:10.743Z,100512.66
2023-05-10T20:47:14.974Z,100505.13
2023-05-10T20:50:17.764Z,100502.28
2023-05-10T20:53:20.347Z,100499.09
2023-05-10T20:56:23.135Z,100504.28
2023-05-10T20:59:25.508Z,100504.56
2023-05-10T21:02:27.845Z,100502.94
2023-05-10T21:05:30.798Z,100503.25
2023-05-10T21:08:33.274Z,100495.88
2023-05-10T21:11:36.212Z,100499.00
2023-05-10T21:14:38.558Z,100491.38
2023-05-10T21:17:40.920Z,100497.50
2023-05-10T21:20:43.237Z,100492.44
2023-05-10T21:23:48.765Z,100495.56
2023-05-10T21:26:51.116Z,100499.50
2023-05-10T21:29:53.656Z,100496.25
2023-05-10T21:32:59.799Z,100496.28
2023-05-10T21:36:02.336Z,100499.72
2023-05-10T21:39:04.580Z,100487.13
2023-05-10T21:42:07.012Z,100500.00
2023-05-10T21:45:09.551Z,100490.88
2023-05-10T21:48:12.336Z,100484.69
2023-05-10T21:51:14.858Z,100500.59
2023-05-10T21:54:17.125Z,100498.22
2023-05-10T21:57:19.759Z,100495.28
2023-05-10T22:00:22.029Z,100498.22
2023-05-10T22:03:24.465Z,100502.13
2023-05-10T22:06:26.762Z,100497.03
2023-05-10T22:09:29.756Z,100501.50
2023-05-10T22:12:32.013Z,100499.13
2023-05-10T22:15:36.332Z,100502.66
2023-05-10T22:18:39.018Z,100505.78
2023-05-10T22:21:41.469Z,100514.03
2023-05-10T22:24:45.568Z,100508.25
2023-05-10T22:27:47.947Z,100495.00
2023-05-10T22:30:50.266Z,100502.97
2023-05-10T22:33:52.563Z,100512.31
2023-05-10T22:36:54.855Z,100509.16
2023-05-10T22:39:57.185Z,100512.81
2023-05-10T22:42:59.471Z,100504.16
2023-05-10T22:46:04.843Z,100511.34
2023-05-10T22:49:07.182Z,100511.06
2023-05-10T22:52:09.795Z,100520.19
2023-05-10T22:55:12.139Z,100515.00
2023-05-10T22:58:14.467Z,100508.03
2023-05-10T23:01:17.191Z,100515.88
2023-05-10T23:04:19.849Z,100525.28
2023-05-10T23:07:22.729Z,100526.97
2023-05-10T23:10:25.139Z,100523.22
2023-05-10T23:13:27.664Z,100505.88
2023-05-10T23:16:30.655Z,100508.81
2023-05-10T23:19:32.997Z,100516.53
2023-05-10T23:22:35.241Z,100514.09
2023-05-10T23:25:38.009Z,100512.19
2023-05-10T23:28:40.326Z,100510.06
2023-05-10T23:31:45.740Z,100517.63
2023-05-10T23:34:48.024Z,100509.59
2023-05-10T23:37:50.408Z,100510.56
2023-05-10T23:40:52.693Z,100521.59
2023-05-10T23:43:54.921Z,100527.66
2023-05-10T23:46:57.192Z,100523.75
2023-05-10T23:49:59.567Z,100525.50
2023-05-10T23:53:04.346Z,100521.75
2023-05-10T23:56:07.908Z,100514.50
2023-05-10T23:59:10.417Z,100514.59
